createdAt,value
2023-02-18T00:00:32.851Z,3.90
2023-02-18T00:02:59.978Z,4.60
2023-02-18T00:05:29.773Z,6.43
2023-02-18T00:07:56.851Z,5.05
2023-02-18T00:10:24.042Z,3.40
2023-02-18T00:12:51.124Z,5.93
2023-02-18T00:15:18.267Z,4.38
2023-02-18T00:17:45.371Z,4.07
2023-02-18T00:20:12.741Z,5.18
2023-02-18T00:22:39.836Z,4.38
2023-02-18T00:25:07.207Z,4.88
2023-02-18T00:27:34.382Z,5.03
2023-02-18T00:30:01.893Z,5.20
2023-02-18T00:32:29.012Z,5.22
2023-02-18T00:34:56.487Z,4.10
2023-02-18T00:37:23.589Z,5.50
2023-02-18T00:39:50.788Z,5.25
2023-02-18T00:42:18.002Z,4.03
2023-02-18T00:44:45.150Z,5.68
2023-02-18T00:47:12.285Z,4.32
2023-02-18T00:49:39.526Z,5.75
2023-02-18T00:52:07.454Z,4.45
2023-02-18T00:54:34.755Z,5.38
2023-02-18T00:57:01.960Z,5.30
2023-02-18T00:59:29.068Z,3.80
2023-02-18T01:01:56.266Z,6.25
2023-02-18T01:04:23.321Z,7.03
2023-02-18T01:06:50.468Z,4.30
2023-02-18T01:09:17.508Z,5.93
2023-02-18T01:11:44.958Z,3.80
2023-02-18T01:14:12.222Z,4.53
2023-02-18T01:16:39.342Z,5.18
2023-02-18T01:19:09.471Z,4.88
2023-02-18T01:21:38.374Z,3.33
2023-02-18T01:24:06.031Z,5.90
2023-02-18T01:26:33.229Z,6.78
2023-02-18T01:29:00.341Z,5.45
2023-02-18T01:31:28.136Z,4.00
2023-02-18T01:33:55.376Z,4.88
2023-02-18T01:36:22.703Z,4.10
2023-02-18T01:38:49.941Z,4.93
2023-02-18T01:41:17.185Z,3.40
2023-02-18T01:43:44.224Z,4.95
2023-02-18T01:46:18.078Z,3.33
2023-02-18T01:48:57.898Z,4.82
2023-02-18T01:51:29.081Z,4.45
2023-02-18T01:54:20.193Z,4.63
2023-02-18T01:56:57.626Z,4.93
2023-02-18T01:59:31.107Z,2.50
2023-02-18T02:01:59.233Z,4.47
2023-02-18T02:04:26.655Z,4.35
2023-02-18T02:06:53.855Z,3.97
2023-02-18T02:09:27.154Z,5.07
2023-02-18T02:12:24.336Z,3.47
2023-02-18T02:14:57.104Z,4.18
2023-02-18T02:18:02.093Z,3.53
2023-02-18T02:20:37.996Z,4.88
2023-02-18T02:23:50.187Z,4.45
2023-02-18T02:26:20.235Z,3.85
2023-02-18T02:29:19.651Z,4.65
2023-02-18T02:32:05.240Z,3.63
2023-02-18T02:34:50.931Z,3.92
2023-02-18T02:38:03.545Z,4.95
2023-02-18T02:40:55.602Z,6.03
2023-02-18T02:43:52.232Z,4.88
2023-02-18T02:46:30.426Z,4.45
2023-02-18T02:49:11.555Z,4.90
2023-02-18T02:51:51.469Z,4.18
2023-02-18T02:54:23.991Z,4.28
2023-02-18T02:57:08.292Z,3.90
2023-02-18T02:59:42.014Z,4.40
2023-02-18T03:02:24.459Z,3.95
2023-02-18T03:05:20.755Z,3.10
2023-02-18T03:08:03.135Z,4.38
2023-02-18T03:10:53.515Z,4.25
2023-02-18T03:13:38.570Z,3.92
2023-02-18T03:16:27.076Z,3.67
2023-02-18T03:19:08.391Z,5.03
2023-02-18T03:21:45.455Z,3.97
2023-02-18T03:24:24.811Z,4.38
2023-02-18T03:26:58.582Z,2.58
2023-02-18T03:29:27.221Z,4.38
2023-02-18T03:32:03.355Z,3.40
2023-02-18T03:34:34.478Z,4.25
2023-02-18T03:37:02.854Z,3.67
2023-02-18T03:39:34.502Z,4.90
2023-02-18T03:42:01.680Z,3.75
2023-02-18T03:44:31.692Z,3.00
2023-02-18T03:46:59.028Z,3.60
2023-02-18T03:49:26.138Z,3.08
2023-02-18T03:51:53.412Z,3.53
2023-02-18T03:54:20.634Z,3.28
2023-02-18T03:56:47.867Z,2.85
2023-02-18T03:59:15.105Z,3.28
2023-02-18T04:01:42.293Z,4.18
2023-02-18T04:04:09.736Z,3.30
2023-02-18T04:06:36.985Z,3.42
2023-02-18T04:09:09.352Z,3.53
2023-02-18T04:11:41.492Z,3.28
2023-02-18T04:14:09.131Z,3.22
2023-02-18T04:16:36.593Z,3.40
2023-02-18T04:19:03.886Z,3.60
2023-02-18T04:21:30.983Z,3.85
2023-02-18T04:23:58.108Z,3.55
2023-02-18T04:26:25.351Z,3.15
2023-02-18T04:28:52.583Z,3.28
2023-02-18T04:31:19.879Z,3.75
2023-02-18T04:33:47.027Z,3.25
2023-02-18T04:36:14.063Z,3.60
2023-02-18T04:38:42.499Z,4.18
2023-02-18T04:41:09.635Z,2.85
2023-02-18T04:43:36.865Z,2.78
2023-02-18T04:46:04.400Z,3.53
2023-02-18T04:48:31.504Z,2.88
2023-02-18T04:50:58.633Z,3.10
2023-02-18T04:53:25.804Z,2.78
2023-02-18T04:55:53.824Z,3.00
2023-02-18T04:58:21.454Z,3.00
2023-02-18T05:00:48.905Z,3.28
2023-02-18T05:03:17.378Z,3.40
2023-02-18T05:05:44.440Z,3.45
2023-02-18T05:08:12.088Z,2.75
2023-02-18T05:10:39.649Z,2.72
2023-02-18T05:13:06.828Z,3.30
2023-02-18T05:15:33.990Z,2.72
2023-02-18T05:18:01.170Z,2.60
2023-02-18T05:20:28.696Z,4.18
2023-02-18T05:22:56.205Z,2.47
2023-02-18T05:25:23.267Z,3.40
2023-02-18T05:27:50.319Z,3.00
2023-02-18T05:30:17.721Z,2.88
2023-02-18T05:32:45.077Z,2.55
2023-02-18T05:35:12.353Z,3.10
2023-02-18T05:37:39.525Z,2.60
2023-02-18T05:40:07.317Z,2.92
2023-02-18T05:42:34.423Z,3.05
2023-02-18T05:45:01.524Z,2.47
2023-02-18T05:47:28.651Z,3.70
2023-02-18T05:49:56.343Z,2.53
2023-02-18T05:52:23.562Z,3.08
2023-02-18T05:54:50.762Z,2.53
2023-02-18T05:57:17.863Z,2.67
2023-02-18T05:59:44.929Z,3.05
2023-02-18T06:02:12.039Z,2.38
2023-02-18T06:04:40.770Z,2.78
2023-02-18T06:07:08.224Z,3.17
2023-02-18T06:09:35.294Z,2.63
2023-02-18T06:12:02.450Z,1.85
2023-02-18T06:14:29.664Z,1.60
2023-02-18T06:16:56.851Z,2.30
2023-02-18T06:19:24.021Z,2.42
2023-02-18T06:21:51.096Z,2.70
2023-02-18T06:24:18.194Z,3.70
2023-02-18T06:26:45.221Z,2.03
2023-02-18T06:29:12.334Z,1.75
2023-02-18T06:31:39.449Z,2.00
2023-02-18T06:34:06.672Z,2.42
2023-02-18T06:36:33.820Z,2.47
2023-02-18T06:39:04.336Z,1.95
2023-02-18T06:41:31.426Z,2.25
2023-02-18T06:43:58.614Z,1.73
2023-02-18T06:46:25.712Z,2.05
2023-02-18T06:48:52.936Z,2.53
2023-02-18T06:51:20.107Z,2.10
2023-02-18T06:53:47.222Z,1.83
2023-02-18T06:56:14.316Z,1.88
2023-02-18T06:58:41.424Z,1.70
2023-02-18T07:01:08.509Z,2.70
2023-02-18T07:03:35.782Z,1.67
2023-02-18T07:06:02.916Z,1.75
2023-02-18T07:08:31.313Z,1.38
2023-02-18T07:10:58.364Z,1.73
2023-02-18T07:13:25.501Z,1.73
2023-02-18T07:15:54.154Z,2.20
2023-02-18T07:18:21.316Z,1.83
2023-02-18T07:20:48.441Z,1.35
2023-02-18T07:23:15.534Z,1.17
2023-02-18T07:25:42.568Z,1.00
2023-02-18T07:28:09.733Z,1.38
2023-02-18T07:30:36.838Z,0.95
2023-02-18T07:33:04.156Z,1.10
2023-02-18T07:35:31.276Z,1.40
2023-02-18T07:37:58.420Z,1.30
2023-02-18T07:40:25.516Z,2.20
2023-02-18T07:42:52.702Z,1.10
2023-02-18T07:45:19.771Z,1.38
2023-02-18T07:47:46.994Z,1.58
2023-02-18T07:50:14.074Z,0.98
2023-02-18T07:52:41.237Z,0.70
2023-02-18T07:55:08.933Z,0.77
2023-02-18T07:57:56.122Z,1.88
2023-02-18T08:00:23.656Z,1.02
2023-02-18T08:02:50.765Z,1.00
2023-02-18T08:05:17.833Z,2.08
2023-02-18T08:07:45.154Z,0.73
2023-02-18T08:10:12.159Z,1.08
2023-02-18T08:12:39.320Z,0.75
2023-02-18T08:15:06.707Z,1.73
2023-02-18T08:17:33.758Z,0.90
2023-02-18T08:20:00.987Z,1.17
2023-02-18T08:22:28.099Z,0.70
2023-02-18T08:24:56.698Z,1.55
2023-02-18T08:27:25.005Z,1.10
2023-02-18T08:29:52.344Z,1.00
2023-02-18T08:32:19.413Z,1.02
2023-02-18T08:34:46.531Z,1.50
2023-02-18T08:37:13.751Z,0.80
2023-02-18T08:39:40.834Z,2.08
2023-02-18T08:42:08.144Z,1.77
2023-02-18T08:44:35.282Z,0.90
2023-02-18T08:47:02.343Z,1.80
2023-02-18T08:49:29.500Z,1.40
2023-02-18T08:51:56.924Z,1.77
2023-02-18T08:54:24.151Z,1.83
2023-02-18T08:56:56.036Z,0.93
2023-02-18T08:59:23.311Z,1.08
2023-02-18T09:01:50.742Z,0.90
2023-02-18T09:04:18.401Z,0.98
2023-02-18T09:06:47.287Z,0.70
2023-02-18T09:09:14.529Z,1.27
2023-02-18T09:11:41.653Z,1.63
2023-02-18T09:14:08.990Z,3.03
2023-02-18T09:16:36.509Z,0.90
2023-02-18T09:19:03.662Z,2.08
2023-02-18T09:21:31.035Z,0.77
2023-02-18T09:23:58.355Z,1.45
2023-02-18T09:26:26.528Z,1.83
2023-02-18T09:28:55.306Z,1.38
2023-02-18T09:31:26.368Z,1.02
2023-02-18T09:34:02.387Z,1.85
2023-02-18T09:36:29.678Z,2.63
2023-02-18T09:38:56.824Z,1.00
2023-02-18T09:41:31.528Z,1.27
2023-02-18T09:44:03.653Z,2.78
2023-02-18T09:46:37.214Z,1.70
2023-02-18T09:49:09.166Z,1.55
2023-02-18T09:51:36.284Z,0.80
2023-02-18T09:54:03.489Z,3.13
2023-02-18T09:56:35.633Z,1.45
2023-02-18T09:59:06.123Z,1.85
2023-02-18T10:01:37.903Z,1.95
2023-02-18T10:04:19.356Z,1.20
2023-02-18T10:06:49.136Z,0.93
2023-02-18T10:09:39.633Z,1.50
2023-02-18T10:12:20.309Z,1.10
2023-02-18T10:14:54.902Z,4.45
2023-02-18T10:17:25.408Z,2.60
2023-02-18T10:19:54.764Z,2.65
2023-02-18T10:22:24.103Z,2.67
2023-02-18T10:25:05.257Z,0.80
2023-02-18T10:27:37.474Z,2.00
2023-02-18T10:30:21.404Z,1.45
2023-02-18T10:32:52.279Z,1.80
2023-02-18T10:35:53.381Z,1.30
2023-02-18T10:38:41.383Z,2.30
2023-02-18T10:41:37.891Z,2.35
2023-02-18T10:44:07.897Z,1.65
2023-02-18T10:46:40.890Z,3.60
2023-02-18T10:49:42.048Z,1.60
2023-02-18T10:52:16.042Z,2.15
2023-02-18T10:55:13.437Z,3.40
2023-02-18T10:57:52.098Z,1.58
2023-02-18T11:00:25.541Z,1.30
2023-02-18T11:03:19.339Z,1.80
2023-02-18T11:05:50.805Z,2.58
2023-02-18T11:08:25.250Z,1.38
2023-02-18T11:10:53.084Z,1.10
2023-02-18T11:13:33.295Z,1.50
2023-02-18T11:16:04.594Z,3.05
2023-02-18T11:18:42.055Z,1.17
2023-02-18T11:21:32.305Z,3.03
2023-02-18T11:24:10.477Z,3.72
2023-02-18T11:26:39.893Z,5.38
2023-02-18T11:29:16.714Z,1.00
2023-02-18T11:31:47.471Z,2.30
2023-02-18T11:34:19.015Z,2.00
2023-02-18T11:36:47.633Z,1.65
2023-02-18T11:39:19.441Z,2.72
2023-02-18T11:42:05.399Z,3.13
2023-02-18T11:44:36.895Z,2.58
2023-02-18T11:47:12.997Z,1.73
2023-02-18T11:49:42.980Z,1.33
2023-02-18T11:52:37.534Z,3.85
2023-02-18T11:55:15.011Z,1.58
2023-02-18T11:57:48.486Z,3.05
2023-02-18T12:00:21.772Z,1.27
2023-02-18T12:02:52.169Z,1.05
2023-02-18T12:05:27.660Z,2.17
2023-02-18T12:08:13.369Z,1.98
2023-02-18T12:10:49.530Z,1.80
2023-02-18T12:13:39.703Z,2.70
2023-02-18T12:16:28.518Z,4.55
2023-02-18T12:18:58.712Z,1.92
2023-02-18T12:21:43.761Z,1.40
2023-02-18T12:24:41.559Z,1.45
2023-02-18T12:27:23.452Z,2.28
2023-02-18T12:30:15.003Z,1.27
2023-02-18T12:33:16.491Z,1.67
2023-02-18T12:36:04.539Z,1.98
2023-02-18T12:38:48.038Z,3.00
2023-02-18T12:41:28.043Z,2.03
2023-02-18T12:44:01.147Z,2.15
2023-02-18T12:46:46.562Z,2.13
2023-02-18T12:49:19.351Z,2.90
2023-02-18T12:51:48.931Z,3.83
2023-02-18T12:54:35.417Z,2.10
2023-02-18T12:57:08.152Z,3.85
2023-02-18T13:02:46.868Z,2.28
2023-02-18T13:05:29.283Z,2.00
2023-02-18T13:08:14.344Z,3.83
2023-02-18T13:10:47.242Z,1.55
2023-02-18T13:13:21.493Z,2.92
2023-02-18T13:16:15.407Z,2.58
2023-02-18T13:19:20.534Z,2.05
2023-02-18T13:21:51.291Z,2.70
2023-02-18T13:24:38.791Z,1.58
2023-02-18T13:27:34.402Z,5.40
2023-02-18T13:30:04.432Z,2.17
2023-02-18T13:32:58.707Z,2.45
2023-02-18T13:35:35.590Z,1.83
2023-02-18T13:38:27.088Z,2.08
2023-02-18T13:40:57.204Z,5.85
2023-02-18T13:43:24.217Z,4.82
2023-02-18T13:46:14.994Z,2.05
2023-02-18T13:49:02.116Z,1.88
2023-02-18T13:51:39.113Z,1.60
2023-02-18T13:54:12.247Z,2.75
2023-02-18T13:56:54.568Z,1.25
2023-02-18T13:59:56.697Z,2.75
2023-02-18T14:02:25.003Z,2.58
2023-02-18T14:04:56.018Z,2.95
2023-02-18T14:07:41.869Z,1.65
2023-02-18T14:10:18.633Z,1.60
2023-02-18T14:12:57.988Z,1.90
2023-02-18T14:15:25.177Z,1.63
2023-02-18T14:18:14.229Z,3.45
2023-02-18T14:20:41.280Z,1.55
2023-02-18T14:23:23.605Z,1.65
2023-02-18T14:25:57.573Z,2.47
2023-02-18T14:28:36.808Z,1.48
2023-02-18T14:31:07.620Z,2.33
2023-02-18T14:33:36.927Z,2.40
2023-02-18T14:36:29.040Z,2.40
2023-02-18T14:39:03.605Z,1.42
2023-02-18T14:41:48.366Z,1.77
2023-02-18T14:44:25.670Z,1.38
2023-02-18T14:47:29.417Z,1.48
2023-02-18T14:50:00.169Z,2.22
2023-02-18T14:52:30.070Z,1.52
2023-02-18T14:54:58.670Z,1.70
2023-02-18T14:57:37.821Z,0.65
2023-02-18T15:00:05.975Z,1.05
2023-02-18T15:02:39.144Z,1.55
2023-02-18T15:05:15.270Z,1.00
2023-02-18T15:07:42.433Z,1.38
2023-02-18T15:10:16.338Z,1.38
2023-02-18T15:12:43.595Z,1.30
2023-02-18T15:15:16.022Z,1.13
2023-02-18T15:17:48.228Z,1.23
2023-02-18T15:20:16.404Z,0.80
2023-02-18T15:22:43.801Z,2.13
2023-02-18T15:25:14.899Z,1.38
2023-02-18T15:27:47.260Z,1.05
2023-02-18T15:30:31.503Z,3.33
2023-02-18T15:33:02.396Z,2.58
2023-02-18T15:35:33.514Z,1.73
2023-02-18T15:38:01.615Z,4.35
2023-02-18T15:40:34.268Z,2.40
2023-02-18T15:45:39.318Z,2.40
2023-02-18T15:48:06.760Z,1.42
2023-02-18T15:50:37.865Z,1.58
2023-02-18T15:53:10.423Z,2.17
2023-02-18T15:55:40.826Z,1.60
2023-02-18T15:58:14.002Z,2.50
2023-02-18T16:00:50.342Z,1.73
2023-02-18T16:03:39.918Z,2.25
2023-02-18T16:06:16.813Z,1.30
2023-02-18T16:08:56.677Z,1.45
2023-02-18T16:11:26.188Z,1.30
2023-02-18T16:13:53.392Z,1.20
2023-02-18T16:16:29.856Z,1.33
2023-02-18T16:18:57.121Z,2.22
2023-02-18T16:21:34.477Z,2.10
2023-02-18T16:24:04.393Z,2.10
2023-02-18T16:26:40.356Z,2.05
2023-02-18T16:29:24.285Z,1.50
2023-02-18T16:31:51.782Z,1.85
2023-02-18T16:34:19.384Z,2.70
2023-02-18T16:37:05.196Z,1.60
2023-02-18T16:39:35.465Z,2.10
2023-02-18T16:42:02.624Z,2.33
2023-02-18T16:44:29.779Z,1.73
2023-02-18T16:46:57.605Z,1.60
2023-02-18T16:49:24.645Z,2.40
2023-02-18T16:51:51.768Z,1.88
2023-02-18T16:54:18.940Z,1.88
2023-02-18T16:56:46.075Z,1.05
2023-02-18T16:59:13.174Z,1.92
2023-02-18T17:01:46.501Z,1.23
2023-02-18T17:04:16.685Z,1.48
2023-02-18T17:06:48.905Z,2.38
2023-02-18T17:09:22.497Z,1.48
2023-02-18T17:11:52.428Z,2.45
2023-02-18T17:14:21.753Z,1.45
2023-02-18T17:16:52.470Z,1.20
2023-02-18T17:19:19.613Z,2.00
2023-02-18T17:21:48.719Z,2.33
2023-02-18T17:24:18.664Z,2.35
2023-02-18T17:26:45.978Z,1.90
2023-02-18T17:29:14.047Z,2.17
2023-02-18T17:31:47.735Z,1.48
2023-02-18T17:34:22.667Z,1.15
2023-02-18T17:36:49.808Z,1.73
2023-02-18T17:39:18.482Z,2.53
2023-02-18T17:41:45.732Z,1.80
2023-02-18T17:44:17.379Z,1.30
2023-02-18T17:46:44.813Z,1.73
2023-02-18T17:49:11.849Z,2.63
2023-02-18T17:51:39.601Z,3.00
2023-02-18T17:54:14.516Z,3.85
2023-02-18T17:56:42.208Z,2.60
2023-02-18T17:59:09.586Z,2.95
2023-02-18T18:01:37.009Z,1.58
2023-02-18T18:04:04.351Z,2.28
2023-02-18T18:06:32.879Z,2.20
2023-02-18T18:09:00.086Z,2.17
2023-02-18T18:11:27.246Z,2.20
2023-02-18T18:13:54.392Z,2.13
2023-02-18T18:16:21.950Z,2.25
2023-02-18T18:18:49.143Z,3.08
2023-02-18T18:21:47.425Z,2.20
2023-02-18T18:24:14.548Z,1.65
2023-02-18T18:26:41.688Z,1.75
2023-02-18T18:29:08.736Z,1.88
2023-02-18T18:31:37.774Z,2.63
2023-02-18T18:34:04.892Z,3.30
2023-02-18T18:36:31.969Z,3.40
2023-02-18T18:38:59.010Z,2.83
2023-02-18T18:41:26.170Z,3.97
2023-02-18T18:43:53.280Z,3.50
2023-02-18T18:46:20.535Z,2.50
2023-02-18T18:48:47.795Z,2.45
2023-02-18T18:51:25.602Z,2.22
2023-02-18T18:53:52.860Z,1.88
2023-02-18T18:56:20.007Z,2.15
2023-02-18T18:58:47.266Z,2.42
2023-02-18T19:01:27.672Z,2.38
2023-02-18T19:03:55.157Z,2.13
2023-02-18T19:06:22.459Z,1.83
2023-02-18T19:08:49.796Z,2.38
2023-02-18T19:11:17.493Z,1.75
2023-02-18T19:13:46.029Z,2.75
2023-02-18T19:16:19.203Z,2.38
2023-02-18T19:18:47.542Z,2.08
2023-02-18T19:21:14.966Z,2.33
2023-02-18T19:23:42.148Z,2.63
2023-02-18T19:26:09.755Z,3.03
2023-02-18T19:28:36.938Z,2.97
2023-02-18T19:31:09.688Z,1.85
2023-02-18T19:33:39.554Z,2.60
2023-02-18T19:36:09.410Z,4.20
2023-02-18T19:38:36.630Z,2.42
2023-02-18T19:41:12.796Z,2.78
2023-02-18T19:43:41.840Z,3.08
2023-02-18T19:46:14.242Z,2.53
2023-02-18T19:48:42.233Z,2.08
2023-02-18T19:51:10.377Z,2.20
2023-02-18T19:53:38.076Z,2.20
2023-02-18T19:56:07.599Z,2.53
2023-02-18T19:58:36.062Z,1.90
2023-02-18T20:01:03.646Z,2.25
2023-02-18T20:03:30.924Z,2.47
2023-02-18T20:05:57.991Z,2.78
2023-02-18T20:08:25.147Z,2.47
2023-02-18T20:10:59.090Z,1.77
2023-02-18T20:13:26.956Z,2.10
2023-02-18T20:15:54.276Z,2.40
2023-02-18T20:18:21.422Z,2.05
2023-02-18T20:20:50.022Z,2.20
2023-02-18T20:23:17.240Z,3.45
2023-02-18T20:25:47.832Z,2.85
2023-02-18T20:28:15.370Z,2.35
2023-02-18T20:30:43.081Z,2.28
2023-02-18T20:33:10.778Z,2.65
2023-02-18T20:35:37.832Z,2.90
2023-02-18T20:38:04.961Z,2.60
2023-02-18T20:40:32.188Z,2.15
2023-02-18T20:42:59.272Z,2.50
2023-02-18T20:45:26.327Z,4.05
2023-02-18T20:47:53.422Z,3.13
2023-02-18T20:50:22.036Z,2.33
2023-02-18T20:52:49.245Z,3.67
2023-02-18T20:55:18.050Z,2.83
2023-02-18T20:57:45.131Z,2.22
2023-02-18T21:00:13.346Z,2.22
2023-02-18T21:02:40.562Z,2.67
2023-02-18T21:05:08.046Z,2.92
2023-02-18T21:07:35.243Z,2.67
2023-02-18T21:10:04.537Z,2.83
2023-02-18T21:12:31.679Z,3.15
2023-02-18T21:14:58.826Z,4.15
2023-02-18T21:17:25.923Z,2.88
2023-02-18T21:19:53.084Z,3.35
2023-02-18T21:22:20.218Z,3.53
2023-02-18T21:24:50.863Z,2.90
2023-02-18T21:27:17.935Z,2.78
2023-02-18T21:29:45.089Z,2.55
2023-02-18T21:32:12.202Z,3.03
2023-02-18T21:34:39.475Z,2.80
2023-02-18T21:37:06.667Z,1.90
2023-02-18T21:39:33.812Z,2.38
2023-02-18T21:42:04.365Z,3.58
2023-02-18T21:44:41.705Z,2.60
2023-02-18T21:47:09.713Z,2.78
2023-02-18T21:49:36.879Z,2.42
2023-02-18T21:52:10.028Z,2.15
2023-02-18T21:54:47.393Z,4.30
2023-02-18T21:57:17.618Z,2.38
2023-02-18T21:59:47.826Z,3.50
2023-02-18T22:02:20.989Z,3.70
2023-02-18T22:04:49.310Z,2.85
2023-02-18T22:07:17.887Z,2.45
2023-02-18T22:09:48.268Z,2.38
2023-02-18T22:12:15.984Z,2.72
2023-02-18T22:14:44.074Z,2.47
2023-02-18T22:17:11.491Z,2.63
2023-02-18T22:19:39.063Z,2.38
2023-02-18T22:22:06.293Z,2.67
2023-02-18T22:24:34.103Z,2.90
2023-02-18T22:27:01.786Z,2.97
2023-02-18T22:29:31.151Z,2.65
2023-02-18T22:31:58.415Z,2.75
2023-02-18T22:34:25.661Z,2.80
2023-02-18T22:36:52.847Z,2.70
2023-02-18T22:39:20.146Z,2.33
2023-02-18T22:41:47.419Z,2.80
2023-02-18T22:44:16.676Z,3.10
2023-02-18T22:46:44.275Z,3.80
2023-02-18T22:49:11.979Z,2.40
2023-02-18T22:51:42.851Z,3.30
2023-02-18T22:54:15.572Z,2.72
2023-02-18T22:56:42.979Z,2.50
2023-02-18T22:59:11.970Z,3.45
2023-02-18T23:01:42.728Z,2.13
2023-02-18T23:04:15.741Z,2.30
2023-02-18T23:06:45.688Z,3.00
2023-02-18T23:09:25.158Z,2.78
2023-02-18T23:11:58.421Z,2.60
2023-02-18T23:14:28.514Z,3.22
2023-02-18T23:17:18.062Z,3.00
2023-02-18T23:19:48.617Z,3.00
2023-02-18T23:22:36.099Z,2.40
2023-02-18T23:25:03.303Z,3.80
2023-02-18T23:27:30.750Z,2.92
2023-02-18T23:29:57.997Z,2.42
2023-02-18T23:32:27.903Z,3.80
2023-02-18T23:34:55.130Z,2.67
2023-02-18T23:37:43.818Z,2.88
2023-02-18T23:40:14.097Z,2.20
2023-02-18T23:42:41.170Z,2.50
2023-02-18T23:45:08.611Z,2.75
2023-02-18T23:47:35.730Z,2.60
2023-02-18T23:50:02.952Z,3.10
2023-02-18T23:52:30.080Z,2.42
2023-02-18T23:54:57.189Z,2.17
2023-02-18T23:57:24.283Z,2.67
2023-02-18T23:59:51.422Z,3.05
